Overview Statistics Trail Chart Weather Telemetry Raw packets
 

This is the latest recevied weather packets stored in our database for station/object LRTR. If no packets are shown the sender has not sent any weather packets the latest 10 day(s).

<< 24 25 26 27 28 29 30 >>
Time Temp. Humidity Pressure Rain* Wind** Luminosity Snow
1777154606 7.22° C 87% 1013 hPa - - - -
1777153687 6.11° C 87% 1013 hPa - - - -
1777152785 6.11° C 87% 1013 hPa - - - -
1777151885 7.22° C 87% 1013 hPa - - - -
1777150985 7.22° C 87% 1013 hPa - - - -
1777150085 7.78° C 82% 1013 hPa - - - -
1777149187 7.78° C 82% 1013 hPa - - - -
1777148285 11.11° C 67% 1013 hPa - - - -
1777147384 11.11° C 67% 1013 hPa - - - -
1777146485 12.22° C 63% 1012 hPa - - - -
1777145586 12.22° C 63% 1012 hPa - - - -
1777144685 13.89° C 55% 1012 hPa - - - -
1777143785 13.89° C 55% 1012 hPa - - - -
1777142885 16.11° C 48% 1012 hPa - - - -
1777141985 16.11° C 48% 1012 hPa - - - -
1777141086 17.78° C 40% 1012 hPa - - - -
1777140184 17.78° C 40% 1012 hPa - - - -
1777139285 18.89° C 37% 1012 hPa - - - -
1777138385 18.89° C 37% 1012 hPa - - - -
1777137484 20° C 35% 1012 hPa - - - -
1777136585 20° C 35% 1012 hPa - - - -
1777135685 21.11° C 31% 1012 hPa - - - -
1777134785 21.11° C 31% 1012 hPa - - - -
1777133894 22.22° C 27% 1012 hPa - - - -
1777132985 22.22° C 27% 1012 hPa - - - -

* Rain since midnight (hover to see other rain measurements)
** Current wind speed in m/s (hover to see current wind gust speed)